createdAt,value
2022-09-06T00:01:22.343Z,20.58
2022-09-06T00:05:27.022Z,20.55
2022-09-06T00:09:30.146Z,20.50
2022-09-06T00:13:33.873Z,20.49
2022-09-06T00:17:37.050Z,20.46
2022-09-06T00:21:41.530Z,20.43
2022-09-06T00:25:45.090Z,20.41
2022-09-06T00:29:48.226Z,20.39
2022-09-06T00:33:51.970Z,20.31
2022-09-06T00:37:59.545Z,20.27
2022-09-06T00:42:02.714Z,20.20
2022-09-06T00:46:07.482Z,20.13
2022-09-06T00:50:13.028Z,20.10
2022-09-06T00:54:17.778Z,20.08
2022-09-06T00:58:21.010Z,20.01
2022-09-06T01:02:24.514Z,19.97
2022-09-06T01:06:38.715Z,19.86
2022-09-06T01:11:06.664Z,19.78
2022-09-06T01:15:19.643Z,19.73
2022-09-06T01:19:56.608Z,19.66
2022-09-06T01:24:36.168Z,19.64
2022-09-06T01:28:43.938Z,19.59
2022-09-06T01:32:57.659Z,19.55
2022-09-06T01:37:10.290Z,19.52
2022-09-06T01:41:13.752Z,19.50
2022-09-06T01:45:21.495Z,19.48
2022-09-06T01:49:34.882Z,19.48
2022-09-06T01:53:52.050Z,19.46
2022-09-06T01:58:11.619Z,19.41
2022-09-06T02:02:26.810Z,19.40
2022-09-06T02:06:34.059Z,19.40
2022-09-06T02:10:42.395Z,19.37
2022-09-06T02:14:54.564Z,19.32
2022-09-06T02:19:04.588Z,19.28
2022-09-06T02:23:09.426Z,19.24
2022-09-06T02:27:14.546Z,19.18
2022-09-06T02:31:22.748Z,19.11
2022-09-06T02:35:27.766Z,19.02
2022-09-06T02:39:30.919Z,18.98
2022-09-06T02:43:34.355Z,18.96
2022-09-06T02:47:37.724Z,18.92
2022-09-06T02:51:42.768Z,18.91
2022-09-06T02:55:47.795Z,18.91
2022-09-06T02:59:51.496Z,18.89
2022-09-06T03:03:54.852Z,18.89
2022-09-06T03:07:59.860Z,18.89
2022-09-06T03:12:03.124Z,18.87
2022-09-06T03:16:06.363Z,18.85
2022-09-06T03:20:11.607Z,18.78
2022-09-06T03:24:18.732Z,18.76
2022-09-06T03:28:22.862Z,18.74
2022-09-06T03:32:26.007Z,18.71
2022-09-06T03:36:29.696Z,18.70
2022-09-06T03:40:34.649Z,18.69
2022-09-06T03:44:44.111Z,18.65
2022-09-06T03:48:47.452Z,18.63
2022-09-06T03:52:50.617Z,18.58
2022-09-06T03:56:55.187Z,18.56
2022-09-06T04:01:03.201Z,18.55
2022-09-06T04:05:06.934Z,18.52
2022-09-06T04:09:10.022Z,18.49
2022-09-06T04:13:14.528Z,18.41
2022-09-06T04:17:17.615Z,18.37
2022-09-06T04:21:20.783Z,18.34
2022-09-06T04:25:24.037Z,18.30
2022-09-06T04:29:28.533Z,18.25
2022-09-06T04:33:32.407Z,18.17
2022-09-06T04:37:35.518Z,18.09
2022-09-06T04:41:38.595Z,18.01
2022-09-06T04:45:43.912Z,17.97
2022-09-06T04:49:48.295Z,17.97
2022-09-06T04:53:51.657Z,17.95
2022-09-06T04:57:55.290Z,17.94
2022-09-06T05:02:00.111Z,17.94
2022-09-06T05:06:08.522Z,17.91
2022-09-06T05:10:11.962Z,17.91
2022-09-06T05:14:15.266Z,17.87
2022-09-06T05:18:19.725Z,17.89
2022-09-06T05:22:22.823Z,17.90
2022-09-06T05:26:26.199Z,17.90
2022-09-06T05:30:29.294Z,17.90
2022-09-06T05:34:34.052Z,17.92
2022-09-06T05:38:37.364Z,17.95
2022-09-06T05:42:41.536Z,17.98
2022-09-06T05:46:45.431Z,18.03
2022-09-06T05:51:00.049Z,18.08
2022-09-06T05:55:03.619Z,18.12
2022-09-06T05:59:07.007Z,18.20
2022-09-06T06:03:10.083Z,18.24
2022-09-06T06:07:15.607Z,18.30
2022-09-06T06:11:19.259Z,18.39
2022-09-06T06:15:22.316Z,18.49
2022-09-06T06:19:26.708Z,18.58
2022-09-06T06:23:31.372Z,18.69
2022-09-06T06:27:36.880Z,18.76
2022-09-06T06:31:40.191Z,18.87
2022-09-06T06:35:43.751Z,18.94
2022-09-06T06:39:48.485Z,19.04
2022-09-06T06:43:53.383Z,19.15
2022-09-06T06:47:56.673Z,19.26
2022-09-06T06:52:00.133Z,19.34
2022-09-06T06:56:15.236Z,19.43
2022-09-06T07:00:19.737Z,19.56
2022-09-06T07:04:23.194Z,19.73
2022-09-06T07:08:26.486Z,19.83
2022-09-06T07:12:31.141Z,20.01
2022-09-06T07:16:34.347Z,20.18
2022-09-06T07:25:01.121Z,20.58
2022-09-06T07:29:06.962Z,20.81
2022-09-06T07:33:10.299Z,20.96
2022-09-06T07:37:13.608Z,21.17
2022-09-06T07:41:17.495Z,21.35
2022-09-06T07:45:21.985Z,21.50
2022-09-06T07:49:25.143Z,21.68
2022-09-06T07:53:31.203Z,21.77
2022-09-06T07:57:34.613Z,21.91
2022-09-06T08:01:40.389Z,22.08
2022-09-06T08:10:07.467Z,22.44
2022-09-06T08:14:11.362Z,22.61
2022-09-06T08:18:16.059Z,22.74
2022-09-06T08:22:19.526Z,22.84
2022-09-06T08:26:29.034Z,22.94
2022-09-06T08:30:32.367Z,23.10
2022-09-06T08:34:43.683Z,23.22
2022-09-06T08:38:46.971Z,23.35
2022-09-06T08:42:50.579Z,23.47
2022-09-06T08:46:59.213Z,23.55
2022-09-06T08:51:20.084Z,23.63
2022-09-06T08:55:35.264Z,23.73
2022-09-06T08:59:40.378Z,23.78
2022-09-06T09:03:44.875Z,23.85
2022-09-06T09:07:57.045Z,23.96
2022-09-06T09:12:02.022Z,24.04
2022-09-06T09:16:06.334Z,24.10
2022-09-06T09:20:10.315Z,24.21
2022-09-06T09:24:16.352Z,24.35
2022-09-06T09:28:24.114Z,24.48
2022-09-06T09:32:32.062Z,24.53
2022-09-06T09:36:35.352Z,24.61
2022-09-06T09:40:42.037Z,24.72
2022-09-06T09:44:45.867Z,24.82
2022-09-06T09:49:03.284Z,24.91
2022-09-06T09:53:10.421Z,25.04
2022-09-06T09:57:18.782Z,25.15
2022-09-06T10:01:26.682Z,25.15
2022-09-06T10:05:30.235Z,25.25
2022-09-06T10:09:36.983Z,25.32
2022-09-06T10:13:43.235Z,25.36
2022-09-06T10:17:50.433Z,25.45
2022-09-06T10:21:59.695Z,25.67
2022-09-06T10:26:07.346Z,25.81
2022-09-06T10:30:14.505Z,25.88
2022-09-06T10:34:48.807Z,25.96
2022-09-06T10:38:57.547Z,26.07
2022-09-06T10:43:08.780Z,26.07
2022-09-06T10:47:15.968Z,26.14
2022-09-06T10:51:30.998Z,26.21
2022-09-06T10:55:34.564Z,26.33
2022-09-06T10:59:43.063Z,26.30
2022-09-06T11:12:34.150Z,26.45
2022-09-06T11:16:44.732Z,26.50
2022-09-06T11:21:03.337Z,26.59
2022-09-06T11:25:29.695Z,26.61
2022-09-06T11:29:34.268Z,26.61
2022-09-06T11:33:39.920Z,26.72
2022-09-06T11:37:49.658Z,26.86
2022-09-06T11:41:52.691Z,26.94
2022-09-06T11:45:55.937Z,26.90
2022-09-06T11:49:59.127Z,26.82
2022-09-06T11:54:21.883Z,26.78
2022-09-06T11:58:29.929Z,26.86
2022-09-06T12:02:38.406Z,26.92
2022-09-06T12:06:43.805Z,26.93
2022-09-06T12:10:56.726Z,26.88
2022-09-06T12:15:13.127Z,27.01
2022-09-06T12:19:44.070Z,27.20
2022-09-06T12:23:47.541Z,27.30
2022-09-06T12:27:58.148Z,27.37
2022-09-06T12:32:02.067Z,27.42
2022-09-06T12:36:15.362Z,27.48
2022-09-06T12:40:20.685Z,27.41
2022-09-06T12:44:31.760Z,27.35
2022-09-06T12:48:41.225Z,27.38
2022-09-06T12:52:50.669Z,27.40
2022-09-06T12:56:55.012Z,27.49
2022-09-06T13:01:08.638Z,27.56
2022-09-06T13:05:13.410Z,27.58
2022-09-06T13:09:20.429Z,27.63
2022-09-06T13:13:26.118Z,27.65
2022-09-06T13:17:31.524Z,27.67
2022-09-06T13:21:35.405Z,27.71
2022-09-06T13:25:49.551Z,27.70
2022-09-06T13:29:57.520Z,27.65
2022-09-06T13:34:02.268Z,27.65
2022-09-06T13:38:33.708Z,27.64
2022-09-06T13:42:37.840Z,27.66
2022-09-06T13:46:41.323Z,27.67
2022-09-06T13:50:45.830Z,27.66
2022-09-06T13:54:49.093Z,27.54
2022-09-06T13:58:52.350Z,27.47
2022-09-06T14:02:55.871Z,27.42
2022-09-06T14:07:00.523Z,27.38
2022-09-06T14:11:03.935Z,27.33
2022-09-06T14:15:08.347Z,27.35
2022-09-06T14:19:11.806Z,27.33
2022-09-06T14:23:16.350Z,27.35
2022-09-06T14:27:19.698Z,27.32
2022-09-06T14:31:25.980Z,27.30
2022-09-06T14:35:29.186Z,27.28
2022-09-06T14:39:33.721Z,27.21
2022-09-06T14:43:37.838Z,27.19
2022-09-06T14:47:41.503Z,27.12
2022-09-06T14:51:45.964Z,27.10
2022-09-06T14:55:50.574Z,27.10
2022-09-06T14:59:53.868Z,27.08
2022-09-06T15:03:58.932Z,27.07
2022-09-06T15:08:02.496Z,27.04
2022-09-06T15:12:07.341Z,27.00
2022-09-06T15:16:11.932Z,27.01
2022-09-06T15:20:15.172Z,27.01
2022-09-06T15:24:18.791Z,26.99
2022-09-06T15:28:23.362Z,27.01
2022-09-06T15:32:26.717Z,26.97
2022-09-06T15:36:30.288Z,26.94
2022-09-06T15:40:33.583Z,26.93
2022-09-06T15:44:38.340Z,26.89
2022-09-06T15:48:43.702Z,26.88
2022-09-06T15:52:46.887Z,26.81
2022-09-06T15:56:50.407Z,26.74
2022-09-06T16:01:07.821Z,26.63
2022-09-06T16:05:11.255Z,26.60
2022-09-06T16:09:17.591Z,26.56
2022-09-06T16:13:20.815Z,26.49
2022-09-06T16:17:27.512Z,26.41
2022-09-06T16:21:32.931Z,26.35
2022-09-06T16:25:36.343Z,26.31
2022-09-06T16:29:39.611Z,26.28
2022-09-06T16:33:45.660Z,26.26
2022-09-06T16:37:49.123Z,26.20
2022-09-06T16:41:52.736Z,26.17
2022-09-06T16:45:59.812Z,26.14
2022-09-06T16:50:05.075Z,26.08
2022-09-06T16:54:08.507Z,25.96
2022-09-06T16:58:11.739Z,25.85
2022-09-06T17:02:15.038Z,25.78
2022-09-06T17:06:21.298Z,25.69
2022-09-06T17:10:24.522Z,25.56
2022-09-06T17:14:27.893Z,25.47
2022-09-06T17:18:31.294Z,25.36
2022-09-06T17:22:36.410Z,25.28
2022-09-06T17:26:40.390Z,25.19
2022-09-06T17:30:43.736Z,25.14
2022-09-06T17:34:47.164Z,25.03
2022-09-06T17:38:53.568Z,24.98
2022-09-06T17:42:57.112Z,24.90
2022-09-06T17:47:12.623Z,24.86
2022-09-06T17:51:17.016Z,24.76
2022-09-06T17:55:21.988Z,24.69
2022-09-06T17:59:25.360Z,24.60
2022-09-06T18:03:28.563Z,24.56
2022-09-06T18:07:32.905Z,24.52
2022-09-06T18:11:39.254Z,24.50
2022-09-06T18:15:42.791Z,24.51
2022-09-06T18:19:46.204Z,24.49
2022-09-06T18:23:49.595Z,24.43
2022-09-06T18:27:54.248Z,24.39
2022-09-06T18:31:58.002Z,24.35
2022-09-06T18:36:02.120Z,24.31
2022-09-06T18:40:06.450Z,24.23
2022-09-06T18:44:11.572Z,24.14
2022-09-06T18:48:16.029Z,24.06
2022-09-06T18:52:20.778Z,23.96
2022-09-06T18:56:24.838Z,23.90
2022-09-06T19:00:29.595Z,23.88
2022-09-06T19:04:33.118Z,23.85
2022-09-06T19:08:36.823Z,23.81
2022-09-06T19:12:40.692Z,23.75
2022-09-06T19:16:46.479Z,23.67
2022-09-06T19:20:57.883Z,23.58
2022-09-06T19:25:01.295Z,23.54
2022-09-06T19:29:06.935Z,23.46
2022-09-06T19:33:12.114Z,23.35
2022-09-06T19:37:17.367Z,23.23
2022-09-06T19:41:20.601Z,23.21
2022-09-06T19:45:23.770Z,23.14
2022-09-06T19:49:29.574Z,23.07
2022-09-06T19:53:33.307Z,22.97
2022-09-06T19:57:36.496Z,22.90
2022-09-06T20:01:41.270Z,22.80
2022-09-06T20:05:45.934Z,22.70
2022-09-06T20:09:52.432Z,22.69
2022-09-06T20:13:56.377Z,22.68
2022-09-06T20:17:59.694Z,22.67
2022-09-06T20:22:04.521Z,22.61
2022-09-06T20:26:10.279Z,22.58
2022-09-06T20:30:13.727Z,22.49
2022-09-06T20:34:19.443Z,22.40
2022-09-06T20:38:24.786Z,22.30
2022-09-06T20:42:28.177Z,22.24
2022-09-06T20:46:33.982Z,22.21
2022-09-06T20:50:37.504Z,22.18
2022-09-06T20:54:42.335Z,22.14
2022-09-06T20:58:49.765Z,22.07
2022-09-06T21:02:53.205Z,21.98
2022-09-06T21:06:56.639Z,21.91
2022-09-06T21:11:02.205Z,21.87
2022-09-06T21:15:06.396Z,21.83
2022-09-06T21:19:11.264Z,21.74
2022-09-06T21:23:14.707Z,21.65
2022-09-06T21:27:19.569Z,21.59
2022-09-06T21:31:24.525Z,21.54
2022-09-06T21:35:27.812Z,21.50
2022-09-06T21:39:31.207Z,21.45
2022-09-06T21:43:36.503Z,21.40
2022-09-06T21:47:39.971Z,21.30
2022-09-06T21:51:43.958Z,21.23
2022-09-06T21:55:47.202Z,21.18
2022-09-06T21:59:51.791Z,21.16
2022-09-06T22:03:55.473Z,21.14
2022-09-06T22:07:58.809Z,21.13
2022-09-06T22:12:02.148Z,21.12
2022-09-06T22:16:08.212Z,21.04
2022-09-06T22:20:12.441Z,20.98
2022-09-06T22:24:17.506Z,20.91
2022-09-06T22:28:21.377Z,20.87
2022-09-06T22:32:26.137Z,20.81
2022-09-06T22:36:29.805Z,20.74
2022-09-06T22:40:33.032Z,20.66
2022-09-06T22:44:36.393Z,20.62
2022-09-06T22:48:41.167Z,20.62
2022-09-06T22:52:44.360Z,20.60
2022-09-06T22:56:47.727Z,20.58
2022-09-06T23:00:51.370Z,20.55
2022-09-06T23:04:56.113Z,20.53
2022-09-06T23:09:00.114Z,20.51
2022-09-06T23:13:03.280Z,20.45
2022-09-06T23:17:06.564Z,20.41
2022-09-06T23:21:13.171Z,20.34
2022-09-06T23:25:16.540Z,20.28
2022-09-06T23:29:20.000Z,20.23
2022-09-06T23:33:23.684Z,20.23
2022-09-06T23:37:28.438Z,20.19
2022-09-06T23:41:32.059Z,20.13
2022-09-06T23:45:35.284Z,20.11
2022-09-06T23:49:38.679Z,20.09
2022-09-06T23:53:43.629Z,20.07
2022-09-06T23:57:46.806Z,20.04
